sensor_id;sensor_type;location;lat;lon;timestamp;pressure;altitude;pressure_sealevel;temperature;humidity
42001;BME280;27689;48.390;10.856;2024-03-25T00:01:05;95343.81;;;4.63;99.42
42001;BME280;27689;48.390;10.856;2024-03-25T00:03:49;95338.94;;;4.48;99.98
42001;BME280;27689;48.390;10.856;2024-03-25T00:06:33;95338.00;;;4.49;100.00
42001;BME280;27689;48.390;10.856;2024-03-25T00:09:17;95343.84;;;4.42;100.00
42001;BME280;27689;48.390;10.856;2024-03-25T00:12:01;95338.44;;;4.54;100.00
42001;BME280;27689;48.390;10.856;2024-03-25T00:14:48;95341.78;;;4.66;98.68
42001;BME280;27689;48.390;10.856;2024-03-25T00:17:32;95333.00;;;4.57;99.02
42001;BME280;27689;48.390;10.856;2024-03-25T00:20:16;95334.84;;;4.46;99.65
42001;BME280;27689;48.390;10.856;2024-03-25T00:23:00;95339.91;;;4.47;100.00
42001;BME280;27689;48.390;10.856;2024-03-25T00:25:44;95336.94;;;4.52;98.24
42001;BME280;27689;48.390;10.856;2024-03-25T00:28:28;95328.47;;;4.50;98.46
42001;BME280;27689;48.390;10.856;2024-03-25T00:31:12;95333.13;;;4.56;98.04
42001;BME280;27689;48.390;10.856;2024-03-25T00:33:56;95345.16;;;4.57;98.10
42001;BME280;27689;48.390;10.856;2024-03-25T00:36:40;95345.19;;;4.67;97.64
42001;BME280;27689;48.390;10.856;2024-03-25T00:39:24;95338.19;;;4.57;98.13
42001;BME280;27689;48.390;10.856;2024-03-25T00:42:08;95347.09;;;4.65;98.43
42001;BME280;27689;48.390;10.856;2024-03-25T00:44:52;95340.09;;;4.55;98.97
42001;BME280;27689;48.390;10.856;2024-03-25T00:47:36;95338.19;;;4.57;98.53
42001;BME280;27689;48.390;10.856;2024-03-25T00:50:20;95340.50;;;4.60;98.65
42001;BME280;27689;48.390;10.856;2024-03-25T00:53:04;95333.03;;;4.67;98.21
42001;BME280;27689;48.390;10.856;2024-03-25T00:55:48;95334.34;;;4.52;99.51
42001;BME280;27689;48.390;10.856;2024-03-25T00:58:32;95336.50;;;4.47;100.00
42001;BME280;27689;48.390;10.856;2024-03-25T01:01:16;95336.19;;;4.40;100.00
42001;BME280;27689;48.390;10.856;2024-03-25T01:04:00;95348.56;;;4.57;100.00
42001;BME280;27689;48.390;10.856;2024-03-25T01:06:44;95351.78;;;4.50;100.00
42001;BME280;27689;48.390;10.856;2024-03-25T01:09:28;95337.31;;;4.47;100.00
42001;BME280;27689;48.390;10.856;2024-03-25T01:12:14;95333.91;;;4.47;100.00
42001;BME280;27689;48.390;10.856;2024-03-25T01:14:58;95339.72;;;4.39;100.00
42001;BME280;27689;48.390;10.856;2024-03-25T01:17:42;95343.75;;;4.53;100.00
42001;BME280;27689;48.390;10.856;2024-03-25T01:20:26;95330.06;;;4.41;100.00
42001;BME280;27689;48.390;10.856;2024-03-25T01:23:10;95336.50;;;4.47;100.00
42001;BME280;27689;48.390;10.856;2024-03-25T01:25:54;95335.84;;;4.54;100.00
42001;BME280;27689;48.390;10.856;2024-03-25T01:28:38;95336.56;;;4.56;100.00
42001;BME280;27689;48.390;10.856;2024-03-25T01:31:22;95339.03;;;4.58;100.00
42001;BME280;27689;48.390;10.856;2024-03-25T01:34:06;95323.00;;;4.53;100.00
42001;BME280;27689;48.390;10.856;2024-03-25T01:36:50;95336.31;;;4.39;100.00
42001;BME280;27689;48.390;10.856;2024-03-25T01:39:34;95326.19;;;4.36;100.00
42001;BME280;27689;48.390;10.856;2024-03-25T01:42:18;95312.84;;;4.40;100.00
42001;BME280;27689;48.390;10.856;2024-03-25T01:45:02;95322.53;;;4.38;100.00
42001;BME280;27689;48.390;10.856;2024-03-25T01:47:47;95310.25;;;4.40;100.00
42001;BME280;27689;48.390;10.856;2024-03-25T01:50:33;95323.66;;;4.45;100.00
42001;BME280;27689;48.390;10.856;2024-03-25T01:53:19;95327.97;;;4.35;100.00
42001;BME280;27689;48.390;10.856;2024-03-25T01:56:03;95313.47;;;4.33;100.00
42001;BME280;27689;48.390;10.856;2024-03-25T01:58:48;95319.50;;;4.33;100.00
42001;BME280;27689;48.390;10.856;2024-03-25T02:01:31;95317.34;;;4.38;100.00
42001;BME280;27689;48.390;10.856;2024-03-25T02:04:16;95318.75;;;4.42;100.00
42001;BME280;27689;48.390;10.856;2024-03-25T02:07:00;95319.28;;;4.46;100.00
42001;BME280;27689;48.390;10.856;2024-03-25T02:09:45;95313.16;;;4.47;100.00
42001;BME280;27689;48.390;10.856;2024-03-25T02:12:30;95313.56;;;4.42;100.00
42001;BME280;27689;48.390;10.856;2024-03-25T02:15:14;95325.03;;;4.49;100.00
42001;BME280;27689;48.390;10.856;2024-03-25T02:17:58;95323.09;;;4.42;100.00
42001;BME280;27689;48.390;10.856;2024-03-25T02:20:43;95318.66;;;4.53;100.00
42001;BME280;27689;48.390;10.856;2024-03-25T02:23:27;95321.75;;;4.47;100.00
42001;BME280;27689;48.390;10.856;2024-03-25T02:26:11;95309.19;;;4.43;100.00
42001;BME280;27689;48.390;10.856;2024-03-25T02:28:55;95316.34;;;4.30;100.00
42001;BME280;27689;48.390;10.856;2024-03-25T02:31:39;95323.72;;;4.34;100.00
42001;BME280;27689;48.390;10.856;2024-03-25T02:34:23;95314.06;;;4.36;100.00
42001;BME280;27689;48.390;10.856;2024-03-25T02:37:07;95313.19;;;4.26;100.00
42001;BME280;27689;48.390;10.856;2024-03-25T02:39:53;95316.66;;;4.36;100.00
42001;BME280;27689;48.390;10.856;2024-03-25T02:42:39;95316.06;;;4.33;100.00
42001;BME280;27689;48.390;10.856;2024-03-25T02:45:23;95325.28;;;4.46;100.00
42001;BME280;27689;48.390;10.856;2024-03-25T02:48:07;95322.88;;;4.24;100.00
42001;BME280;27689;48.390;10.856;2024-03-25T02:50:51;95325.41;;;4.14;100.00
42001;BME280;27689;48.390;10.856;2024-03-25T02:53:35;95324.31;;;4.17;100.00
42001;BME280;27689;48.390;10.856;2024-03-25T02:56:19;95332.41;;;4.23;100.00
42001;BME280;27689;48.390;10.856;2024-03-25T02:59:03;95337.84;;;4.20;100.00
42001;BME280;27689;48.390;10.856;2024-03-25T03:01:47;95332.25;;;4.15;100.00
42001;BME280;27689;48.390;10.856;2024-03-25T03:04:31;95327.44;;;4.11;100.00
42001;BME280;27689;48.390;10.856;2024-03-25T03:07:15;95322.53;;;4.17;100.00
42001;BME280;27689;48.390;10.856;2024-03-25T03:09:59;95321.53;;;4.09;100.00
42001;BME280;27689;48.390;10.856;2024-03-25T03:12:43;95328.03;;;4.03;100.00
42001;BME280;27689;48.390;10.856;2024-03-25T03:15:27;95317.19;;;4.09;100.00
42001;BME280;27689;48.390;10.856;2024-03-25T03:18:11;95323.94;;;4.01;100.00
42001;BME280;27689;48.390;10.856;2024-03-25T03:20:55;95325.03;;;3.98;100.00
42001;BME280;27689;48.390;10.856;2024-03-25T03:23:39;95326.22;;;3.94;100.00
42001;BME280;27689;48.390;10.856;2024-03-25T03:26:23;95322.09;;;3.92;100.00
42001;BME280;27689;48.390;10.856;2024-03-25T03:29:11;95324.69;;;3.92;100.00
42001;BME280;27689;48.390;10.856;2024-03-25T03:31:54;95324.94;;;3.88;100.00
42001;BME280;27689;48.390;10.856;2024-03-25T03:34:39;95323.22;;;3.78;100.00
42001;BME280;27689;48.390;10.856;2024-03-25T03:37:23;95329.06;;;3.70;100.00
42001;BME280;27689;48.390;10.856;2024-03-25T03:40:07;95327.97;;;3.73;100.00
42001;BME280;27689;48.390;10.856;2024-03-25T03:42:52;95328.75;;;3.84;100.00
42001;BME280;27689;48.390;10.856;2024-03-25T03:45:36;95336.13;;;3.89;100.00
42001;BME280;27689;48.390;10.856;2024-03-25T03:48:19;95331.00;;;3.78;100.00
42001;BME280;27689;48.390;10.856;2024-03-25T03:51:04;95326.25;;;3.62;100.00
42001;BME280;27689;48.390;10.856;2024-03-25T03:53:48;95325.53;;;3.60;100.00
42001;BME280;27689;48.390;10.856;2024-03-25T03:56:32;95333.94;;;3.52;100.00
42001;BME280;27689;48.390;10.856;2024-03-25T03:59:16;95337.47;;;3.51;100.00
42001;BME280;27689;48.390;10.856;2024-03-25T04:02:00;95329.72;;;3.51;100.00
42001;BME280;27689;48.390;10.856;2024-03-25T04:04:44;95334.41;;;3.46;100.00
42001;BME280;27689;48.390;10.856;2024-03-25T04:07:28;95329.13;;;3.48;100.00
42001;BME280;27689;48.390;10.856;2024-03-25T04:10:12;95335.59;;;3.53;100.00
42001;BME280;27689;48.390;10.856;2024-03-25T04:12:56;95333.44;;;3.59;100.00
42001;BME280;27689;48.390;10.856;2024-03-25T04:15:41;95333.69;;;3.56;100.00
42001;BME280;27689;48.390;10.856;2024-03-25T04:18:25;95334.75;;;3.53;100.00
42001;BME280;27689;48.390;10.856;2024-03-25T04:21:13;95334.34;;;3.37;100.00
42001;BME280;27689;48.390;10.856;2024-03-25T04:23:57;95345.63;;;3.36;100.00
42001;BME280;27689;48.390;10.856;2024-03-25T04:26:41;95332.69;;;3.36;100.00
42001;BME280;27689;48.390;10.856;2024-03-25T04:29:25;95336.16;;;3.25;100.00
42001;BME280;27689;48.390;10.856;2024-03-25T04:32:09;95340.59;;;3.34;100.00
42001;BME280;27689;48.390;10.856;2024-03-25T04:34:54;95348.25;;;3.25;100.00
42001;BME280;27689;48.390;10.856;2024-03-25T04:37:38;95330.75;;;3.17;100.00
42001;BME280;27689;48.390;10.856;2024-03-25T04:40:22;95347.31;;;3.14;100.00
42001;BME280;27689;48.390;10.856;2024-03-25T04:43:06;95350.25;;;3.21;100.00
42001;BME280;27689;48.390;10.856;2024-03-25T04:45:50;95350.41;;;3.08;100.00
42001;BME280;27689;48.390;10.856;2024-03-25T04:48:34;95350.41;;;3.08;100.00
42001;BME280;27689;48.390;10.856;2024-03-25T04:51:18;95344.56;;;2.95;100.00
42001;BME280;27689;48.390;10.856;2024-03-25T04:54:02;95357.84;;;2.91;100.00
42001;BME280;27689;48.390;10.856;2024-03-25T04:56:46;95360.16;;;2.82;100.00
42001;BME280;27689;48.390;10.856;2024-03-25T04:59:32;95371.34;;;2.94;100.00
42001;BME280;27689;48.390;10.856;2024-03-25T05:02:16;95364.66;;;2.92;100.00
42001;BME280;27689;48.390;10.856;2024-03-25T05:04:59;95375.81;;;2.92;100.00
42001;BME280;27689;48.390;10.856;2024-03-25T05:07:43;95371.72;;;2.78;100.00
42001;BME280;27689;48.390;10.856;2024-03-25T05:10:28;95374.88;;;2.82;100.00
42001;BME280;27689;48.390;10.856;2024-03-25T05:13:12;95376.50;;;2.83;100.00
42001;BME280;27689;48.390;10.856;2024-03-25T05:15:56;95373.47;;;2.89;100.00
42001;BME280;27689;48.390;10.856;2024-03-25T05:18:39;95384.88;;;2.87;100.00
42001;BME280;27689;48.390;10.856;2024-03-25T05:21:23;95381.25;;;2.67;100.00
42001;BME280;27689;48.390;10.856;2024-03-25T05:24:07;95385.00;;;2.63;100.00
42001;BME280;27689;48.390;10.856;2024-03-25T05:26:51;95384.75;;;2.66;100.00
42001;BME280;27689;48.390;10.856;2024-03-25T05:29:35;95389.78;;;2.67;100.00
42001;BME280;27689;48.390;10.856;2024-03-25T05:32:19;95390.16;;;2.74;100.00
42001;BME280;27689;48.390;10.856;2024-03-25T05:35:05;95395.09;;;2.66;100.00
42001;BME280;27689;48.390;10.856;2024-03-25T05:37:50;95409.53;;;2.68;100.00
42001;BME280;27689;48.390;10.856;2024-03-25T05:40:34;95410.03;;;2.73;100.00
42001;BME280;27689;48.390;10.856;2024-03-25T05:43:19;95405.78;;;2.72;100.00
42001;BME280;27689;48.390;10.856;2024-03-25T05:46:04;95409.53;;;2.68;100.00
42001;BME280;27689;48.390;10.856;2024-03-25T05:48:48;95404.97;;;2.61;100.00
42001;BME280;27689;48.390;10.856;2024-03-25T05:51:32;95412.94;;;2.69;100.00
42001;BME280;27689;48.390;10.856;2024-03-25T05:54:19;95409.69;;;2.78;100.00
42001;BME280;27689;48.390;10.856;2024-03-25T05:57:03;95412.00;;;2.70;100.00
42001;BME280;27689;48.390;10.856;2024-03-25T05:59:47;95416.97;;;2.73;100.00
42001;BME280;27689;48.390;10.856;2024-03-25T06:02:32;95416.72;;;2.76;100.00
42001;BME280;27689;48.390;10.856;2024-03-25T06:05:16;95404.75;;;2.75;100.00
42001;BME280;27689;48.390;10.856;2024-03-25T06:08:00;95412.28;;;2.78;100.00
42001;BME280;27689;48.390;10.856;2024-03-25T06:10:44;95415.31;;;2.83;100.00
42001;BME280;27689;48.390;10.856;2024-03-25T06:13:28;95415.56;;;2.91;100.00
42001;BME280;27689;48.390;10.856;2024-03-25T06:16:12;95417.66;;;2.97;100.00
42001;BME280;27689;48.390;10.856;2024-03-25T06:18:56;95419.34;;;3.09;100.00
42001;BME280;27689;48.390;10.856;2024-03-25T06:21:40;95419.44;;;3.19;100.00
42001;BME280;27689;48.390;10.856;2024-03-25T06:24:25;95410.94;;;3.28;100.00
42001;BME280;27689;48.390;10.856;2024-03-25T06:27:09;95418.47;;;3.31;100.00
42001;BME280;27689;48.390;10.856;2024-03-25T06:29:53;95413.41;;;3.30;100.00
42001;BME280;27689;48.390;10.856;2024-03-25T06:32:57;95421.03;;;3.42;100.00
42001;BME280;27689;48.390;10.856;2024-03-25T06:36:00;95420.88;;;3.66;100.00
42001;BME280;27689;48.390;10.856;2024-03-25T06:38:44;95420.38;;;3.83;100.00
42001;BME280;27689;48.390;10.856;2024-03-25T06:41:28;95414.06;;;3.97;100.00
42001;BME280;27689;48.390;10.856;2024-03-25T06:44:12;95414.97;;;4.07;100.00
42001;BME280;27689;48.390;10.856;2024-03-25T06:46:56;95418.78;;;4.24;100.00
42001;BME280;27689;48.390;10.856;2024-03-25T06:49:40;95417.66;;;4.38;100.00
42001;BME280;27689;48.390;10.856;2024-03-25T06:52:23;95401.44;;;4.45;100.00
42001;BME280;27689;48.390;10.856;2024-03-25T06:55:08;95413.66;;;4.54;100.00
42001;BME280;27689;48.390;10.856;2024-03-25T06:57:52;95408.34;;;4.56;100.00
42001;BME280;27689;48.390;10.856;2024-03-25T07:00:36;95409.38;;;4.44;100.00
42001;BME280;27689;48.390;10.856;2024-03-25T07:03:21;95408.69;;;4.42;100.00
42001;BME280;27689;48.390;10.856;2024-03-25T07:06:05;95407.16;;;4.39;100.00
42001;BME280;27689;48.390;10.856;2024-03-25T07:08:49;95401.13;;;4.39;100.00
42001;BME280;27689;48.390;10.856;2024-03-25T07:11:33;95402.13;;;4.47;100.00
42001;BME280;27689;48.390;10.856;2024-03-25T07:14:17;95407.81;;;4.62;100.00
42001;BME280;27689;48.390;10.856;2024-03-25T07:17:01;95409.91;;;4.68;100.00
42001;BME280;27689;48.390;10.856;2024-03-25T07:19:45;95410.03;;;4.67;100.00
42001;BME280;27689;48.390;10.856;2024-03-25T07:22:29;95421.63;;;4.63;100.00
42001;BME280;27689;48.390;10.856;2024-03-25T07:25:13;95417.00;;;4.66;100.00
42001;BME280;27689;48.390;10.856;2024-03-25T07:27:58;95426.06;;;4.72;100.00
42001;BME280;27689;48.390;10.856;2024-03-25T07:30:42;95418.63;;;4.88;100.00
42001;BME280;27689;48.390;10.856;2024-03-25T07:33:26;95417.41;;;4.92;100.00
42001;BME280;27689;48.390;10.856;2024-03-25T07:36:10;95417.75;;;5.08;100.00
42001;BME280;27689;48.390;10.856;2024-03-25T07:38:55;95407.69;;;5.15;99.54
42001;BME280;27689;48.390;10.856;2024-03-25T07:41:39;95410.56;;;5.21;99.61
42001;BME280;27689;48.390;10.856;2024-03-25T07:44:23;95400.16;;;5.21;100.00
42001;BME280;27689;48.390;10.856;2024-03-25T07:47:07;95405.81;;;5.26;99.78
42001;BME280;27689;48.390;10.856;2024-03-25T07:49:52;95415.44;;;5.45;98.07
42001;BME280;27689;48.390;10.856;2024-03-25T07:52:36;95419.69;;;5.56;96.31
42001;BME280;27689;48.390;10.856;2024-03-25T07:55:23;95416.94;;;5.48;95.73
42001;BME280;27689;48.390;10.856;2024-03-25T07:58:07;95413.25;;;5.50;94.67
42001;BME280;27689;48.390;10.856;2024-03-25T08:00:51;95426.22;;;5.50;95.02
42001;BME280;27689;48.390;10.856;2024-03-25T08:03:35;95412.56;;;5.48;96.25
42001;BME280;27689;48.390;10.856;2024-03-25T08:06:19;95419.00;;;5.54;97.40
42001;BME280;27689;48.390;10.856;2024-03-25T08:09:04;95420.00;;;5.62;96.17
42001;BME280;27689;48.390;10.856;2024-03-25T08:11:53;95421.66;;;5.83;94.83
42001;BME280;27689;48.390;10.856;2024-03-25T08:14:37;95414.28;;;5.88;94.83
42001;BME280;27689;48.390;10.856;2024-03-25T08:17:21;95411.72;;;6.07;93.08
42001;BME280;27689;48.390;10.856;2024-03-25T08:20:05;95409.53;;;6.22;93.01
42001;BME280;27689;48.390;10.856;2024-03-25T08:22:49;95403.91;;;6.36;93.29
42001;BME280;27689;48.390;10.856;2024-03-25T08:25:33;95401.56;;;6.52;90.75
42001;BME280;27689;48.390;10.856;2024-03-25T08:28:17;95395.09;;;6.66;91.15
42001;BME280;27689;48.390;10.856;2024-03-25T08:31:01;95398.44;;;6.95;87.43
42001;BME280;27689;48.390;10.856;2024-03-25T08:33:45;95397.53;;;7.14;90.18
42001;BME280;27689;48.390;10.856;2024-03-25T08:36:29;95392.50;;;7.40;86.67
42001;BME280;27689;48.390;10.856;2024-03-25T08:39:13;95390.09;;;7.74;85.70
42001;BME280;27689;48.390;10.856;2024-03-25T08:41:57;95374.91;;;8.05;87.32
42001;BME280;27689;48.390;10.856;2024-03-25T08:44:41;95365.28;;;8.23;82.22
42001;BME280;27689;48.390;10.856;2024-03-25T08:47:25;95379.75;;;8.35;79.77
42001;BME280;27689;48.390;10.856;2024-03-25T08:50:09;95376.34;;;8.35;78.14
42001;BME280;27689;48.390;10.856;2024-03-25T08:52:53;95374.81;;;8.50;76.80
42001;BME280;27689;48.390;10.856;2024-03-25T08:55:38;95370.66;;;8.57;76.88
42001;BME280;27689;48.390;10.856;2024-03-25T08:58:22;95368.72;;;8.59;76.15
42001;BME280;27689;48.390;10.856;2024-03-25T09:01:06;95358.03;;;8.78;75.54
42001;BME280;27689;48.390;10.856;2024-03-25T09:03:51;95367.44;;;8.97;74.20
42001;BME280;27689;48.390;10.856;2024-03-25T09:06:34;95367.84;;;9.10;73.48
42001;BME280;27689;48.390;10.856;2024-03-25T09:09:20;95363.31;;;9.20;71.36
42001;BME280;27689;48.390;10.856;2024-03-25T09:12:23;95368.75;;;9.27;69.80
42001;BME280;27689;48.390;10.856;2024-03-25T09:15:07;95357.25;;;9.20;69.77
42001;BME280;27689;48.390;10.856;2024-03-25T09:17:51;95359.78;;;9.38;68.63
42001;BME280;27689;48.390;10.856;2024-03-25T09:20:35;95353.41;;;9.32;67.55
42001;BME280;27689;48.390;10.856;2024-03-25T09:23:19;95354.13;;;9.50;69.21
42001;BME280;27689;48.390;10.856;2024-03-25T09:26:03;95354.50;;;9.80;67.99
42001;BME280;27689;48.390;10.856;2024-03-25T09:28:47;95344.91;;;9.88;65.61
42001;BME280;27689;48.390;10.856;2024-03-25T09:31:31;95336.91;;;10.14;66.00
42001;BME280;27689;48.390;10.856;2024-03-25T09:34:16;95337.56;;;10.24;62.49
42001;BME280;27689;48.390;10.856;2024-03-25T09:37:00;95329.22;;;10.05;61.57
42001;BME280;27689;48.390;10.856;2024-03-25T09:39:43;95336.94;;;10.39;63.77
42001;BME280;27689;48.390;10.856;2024-03-25T09:43:16;95325.97;;;10.43;62.03
42001;BME280;27689;48.390;10.856;2024-03-25T09:45:35;95319.94;;;10.18;60.56
42001;BME280;27689;48.390;10.856;2024-03-25T09:48:21;95320.41;;;10.46;59.45
42001;BME280;27689;48.390;10.856;2024-03-25T09:51:05;95323.81;;;10.63;57.52
42001;BME280;27689;48.390;10.856;2024-03-25T09:53:49;95319.28;;;10.33;58.03
42001;BME280;27689;48.390;10.856;2024-03-25T09:56:33;95309.28;;;10.52;57.54
42001;BME280;27689;48.390;10.856;2024-03-25T09:59:19;95323.50;;;10.66;55.75
42001;BME280;27689;48.390;10.856;2024-03-25T10:02:03;95317.19;;;10.91;55.77
42001;BME280;27689;48.390;10.856;2024-03-25T10:04:48;95304.81;;;11.16;53.60
42001;BME280;27689;48.390;10.856;2024-03-25T10:07:33;95303.09;;;11.40;54.07
42001;BME280;27689;48.390;10.856;2024-03-25T10:10:20;95301.97;;;11.65;54.53
42001;BME280;27689;48.390;10.856;2024-03-25T10:13:04;95301.97;;;11.65;51.74
42001;BME280;27689;48.390;10.856;2024-03-25T10:15:49;95303.91;;;11.01;49.75
42001;BME280;27689;48.390;10.856;2024-03-25T10:18:33;95294.91;;;11.35;50.81
42001;BME280;27689;48.390;10.856;2024-03-25T10:21:19;95296.28;;;11.22;49.98
42001;BME280;27689;48.390;10.856;2024-03-25T10:24:04;95288.59;;;10.82;47.77
42001;BME280;27689;48.390;10.856;2024-03-25T10:26:48;95284.59;;;11.33;45.34
42001;BME280;27689;48.390;10.856;2024-03-25T10:29:32;95287.19;;;11.02;45.80
42001;BME280;27689;48.390;10.856;2024-03-25T10:32:16;95281.19;;;10.85;46.50
42001;BME280;27689;48.390;10.856;2024-03-25T10:35:00;95268.44;;;11.13;42.78
42001;BME280;27689;48.390;10.856;2024-03-25T10:37:44;95282.94;;;11.40;43.92
42001;BME280;27689;48.390;10.856;2024-03-25T10:40:30;95273.63;;;11.60;45.12
42001;BME280;27689;48.390;10.856;2024-03-25T10:43:16;95258.94;;;11.74;39.27
42001;BME280;27689;48.390;10.856;2024-03-25T10:46:00;95260.72;;;11.82;41.56
42001;BME280;27689;48.390;10.856;2024-03-25T10:49:11;95256.31;;;12.20;42.64
42001;BME280;27689;48.390;10.856;2024-03-25T10:52:01;95250.66;;;12.08;42.66
42001;BME280;27689;48.390;10.856;2024-03-25T10:54:47;95244.63;;;12.22;42.44
42001;BME280;27689;48.390;10.856;2024-03-25T10:57:31;95253.47;;;12.44;41.88
42001;BME280;27689;48.390;10.856;2024-03-25T11:00:15;95242.97;;;12.07;40.68
42001;BME280;27689;48.390;10.856;2024-03-25T11:02:59;95227.25;;;12.21;40.50
42001;BME280;27689;48.390;10.856;2024-03-25T11:05:45;95226.63;;;12.34;40.63
42001;BME280;27689;48.390;10.856;2024-03-25T11:08:32;95222.94;;;12.58;39.70
42001;BME280;27689;48.390;10.856;2024-03-25T11:11:17;95212.78;;;12.25;39.84
42001;BME280;27689;48.390;10.856;2024-03-25T11:14:17;95197.91;;;12.62;39.31
42001;BME280;27689;48.390;10.856;2024-03-25T11:17:16;95189.75;;;12.86;41.60
42001;BME280;27689;48.390;10.856;2024-03-25T11:20:12;95174.03;;;13.07;40.01
42001;BME280;27689;48.390;10.856;2024-03-25T11:22:58;95178.81;;;13.33;41.61
42001;BME280;27689;48.390;10.856;2024-03-25T11:25:42;95187.25;;;13.29;38.35
42001;BME280;27689;48.390;10.856;2024-03-25T11:28:28;95173.09;;;13.51;40.88
42001;BME280;27689;48.390;10.856;2024-03-25T11:31:12;95171.03;;;13.25;37.00
42001;BME280;27689;48.390;10.856;2024-03-25T11:33:56;95176.47;;;13.09;38.68
42001;BME280;27689;48.390;10.856;2024-03-25T11:36:43;95183.06;;;12.69;39.27
42001;BME280;27689;48.390;10.856;2024-03-25T11:39:27;95176.28;;;13.11;39.90
42001;BME280;27689;48.390;10.856;2024-03-25T11:42:12;95164.84;;;13.33;38.24
42001;BME280;27689;48.390;10.856;2024-03-25T11:44:57;95165.06;;;13.17;39.18
42001;BME280;27689;48.390;10.856;2024-03-25T11:47:44;95168.94;;;13.21;37.41
42001;BME280;27689;48.390;10.856;2024-03-25T11:50:29;95162.78;;;13.14;39.72
42001;BME280;27689;48.390;10.856;2024-03-25T11:53:13;95156.28;;;12.44;37.92
42001;BME280;27689;48.390;10.856;2024-03-25T11:55:59;95152.75;;;13.38;41.74
42001;BME280;27689;48.390;10.856;2024-03-25T11:58:43;95162.31;;;13.67;38.35
42001;BME280;27689;48.390;10.856;2024-03-25T12:01:29;95153.50;;;14.03;40.22
42001;BME280;27689;48.390;10.856;2024-03-25T12:04:18;95152.19;;;13.64;37.41
42001;BME280;27689;48.390;10.856;2024-03-25T12:07:02;95146.25;;;13.34;36.78
42001;BME280;27689;48.390;10.856;2024-03-25T12:09:46;95147.13;;;12.40;39.78
42001;BME280;27689;48.390;10.856;2024-03-25T12:12:48;95132.19;;;12.41;42.90
42001;BME280;27689;48.390;10.856;2024-03-25T12:15:34;95127.00;;;12.18;38.45
42001;BME280;27689;48.390;10.856;2024-03-25T12:18:18;95118.44;;;12.89;41.93
42001;BME280;27689;48.390;10.856;2024-03-25T12:21:05;95125.81;;;12.50;39.72
42001;BME280;27689;48.390;10.856;2024-03-25T12:23:49;95119.75;;;13.00;38.86
42001;BME280;27689;48.390;10.856;2024-03-25T12:26:34;95106.13;;;12.75;38.61
42001;BME280;27689;48.390;10.856;2024-03-25T12:29:18;95113.31;;;13.02;41.87
42001;BME280;27689;48.390;10.856;2024-03-25T12:32:02;95108.56;;;13.76;40.19
42001;BME280;27689;48.390;10.856;2024-03-25T12:34:47;95102.53;;;12.97;39.64
42001;BME280;27689;48.390;10.856;2024-03-25T12:37:31;95099.53;;;13.00;38.70
42001;BME280;27689;48.390;10.856;2024-03-25T12:40:27;95098.69;;;12.79;40.18
42001;BME280;27689;48.390;10.856;2024-03-25T12:43:17;95096.00;;;12.72;38.93
42001;BME280;27689;48.390;10.856;2024-03-25T12:46:02;95099.47;;;12.58;39.75
42001;BME280;27689;48.390;10.856;2024-03-25T12:48:47;95086.22;;;13.23;40.95
42001;BME280;27689;48.390;10.856;2024-03-25T12:51:31;95074.56;;;13.11;38.87
42001;BME280;27689;48.390;10.856;2024-03-25T12:54:15;95072.09;;;13.52;39.90
42001;BME280;27689;48.390;10.856;2024-03-25T12:56:59;95063.75;;;14.39;40.22
42001;BME280;27689;48.390;10.856;2024-03-25T12:59:43;95056.41;;;14.28;36.16
42001;BME280;27689;48.390;10.856;2024-03-25T13:02:27;95058.19;;;13.86;37.64
42001;BME280;27689;48.390;10.856;2024-03-25T13:05:12;95049.44;;;13.79;37.37
42001;BME280;27689;48.390;10.856;2024-03-25T13:07:56;95041.66;;;13.99;37.42
42001;BME280;27689;48.390;10.856;2024-03-25T13:10:40;95030.72;;;14.36;37.96
42001;BME280;27689;48.390;10.856;2024-03-25T13:13:24;95029.44;;;14.73;39.82
42001;BME280;27689;48.390;10.856;2024-03-25T13:16:08;95016.91;;;14.95;38.11
42001;BME280;27689;48.390;10.856;2024-03-25T13:18:51;95016.88;;;14.75;35.81
42001;BME280;27689;48.390;10.856;2024-03-25T13:21:36;95002.53;;;14.37;35.53
42001;BME280;27689;48.390;10.856;2024-03-25T13:24:20;94999.63;;;14.19;35.01
42001;BME280;27689;48.390;10.856;2024-03-25T13:27:04;95001.41;;;14.53;36.49
42001;BME280;27689;48.390;10.856;2024-03-25T13:29:48;95001.88;;;14.76;35.76
42001;BME280;27689;48.390;10.856;2024-03-25T13:32:32;94987.06;;;14.88;36.17
42001;BME280;27689;48.390;10.856;2024-03-25T13:35:16;94982.06;;;15.13;35.82
42001;BME280;27689;48.390;10.856;2024-03-25T13:38:00;94982.25;;;15.11;35.63
42001;BME280;27689;48.390;10.856;2024-03-25T13:40:44;94969.44;;;14.95;36.00
42001;BME280;27689;48.390;10.856;2024-03-25T13:43:28;94972.50;;;15.05;37.30
42001;BME280;27689;48.390;10.856;2024-03-25T13:46:12;94963.16;;;14.96;36.80
42001;BME280;27689;48.390;10.856;2024-03-25T13:48:57;94966.38;;;14.85;37.14
42001;BME280;27689;48.390;10.856;2024-03-25T13:51:41;94958.00;;;14.55;37.76
42001;BME280;27689;48.390;10.856;2024-03-25T13:54:26;94949.59;;;14.25;35.08
42001;BME280;27689;48.390;10.856;2024-03-25T13:57:10;94951.13;;;14.00;38.11
42001;BME280;27689;48.390;10.856;2024-03-25T13:59:54;94950.38;;;13.65;37.92
42001;BME280;27689;48.390;10.856;2024-03-25T14:02:38;94954.69;;;13.45;37.57
42001;BME280;27689;48.390;10.856;2024-03-25T14:05:23;94949.53;;;13.08;38.83
42001;BME280;27689;48.390;10.856;2024-03-25T14:08:07;94948.44;;;12.96;37.52
42001;BME280;27689;48.390;10.856;2024-03-25T14:10:58;94946.25;;;12.79;39.23
42001;BME280;27689;48.390;10.856;2024-03-25T14:13:42;94948.84;;;12.72;38.48
42001;BME280;27689;48.390;10.856;2024-03-25T14:16:26;94935.03;;;12.91;39.56
42001;BME280;27689;48.390;10.856;2024-03-25T14:19:10;94937.25;;;12.88;38.00
42001;BME280;27689;48.390;10.856;2024-03-25T14:21:54;94928.47;;;12.81;40.08
42001;BME280;27689;48.390;10.856;2024-03-25T14:24:38;94923.00;;;12.76;38.95